Aérodrome :
LOGIN :

S'inscrire | Disclaimer

   EN    FR    IT 

 










Légende :    VFR   VFR Marginal   IFR   IFR Intensif   IFR Très Intensif
Visi : 
Plafond : 
>= 8 km
>= 3000ft
5 à 8 km
1000 à 3000 ft
1500m à 5 km
500 à 1000 ft
800 à 1500m
200 à 500 ft
< 800m
< 200 ft
Symboles :   Orages  Brouillard  Fortes neiges  Fortes précipitations  Vent > 20 kt
SIGMETs :   Divers  Orages  Givrage  Turbulence  Onde Orograph.  Cendres Volcan.






- Altitude de l'aérodrome : 826 ft
- Code IATA : CWC


UKLN - Chernivtsi International

METARs EXPIRÉS :
  • 272330Z VRB01MPS 5000 BR OVC011 02/01 Q1019 R15/09//70 NOSIG
  • 272300Z 00000MPS 5000 BR OVC014 02/01 Q1019 R33/09//70 NOSIG

TAF TAF UKLN
Valide du 28 à 00h jusqu'au 28 à 09h UTC


272308Z 2800/2809 VRB01MPS 5000 BR BKN012 TX01/2809Z TNM01/2804Z
TEMPO 2700/2805 1000 BR OVC004
TEMPO 2805/2809 2100 -SHRASN BR BKN007 BKN015CB



MET'MAP, la Météo Aéronautique d'un coup d'oeil ! - Copyright ORBIFLY Décembre 2007 - Disclaimer

ORBIFLY MET'MAP TEAM :

Programmation & Développement : Alexandra Zaïnal
Sur une idée originale de : Baudouin d'Aumeries
Assistance à la programmation : Marc-Olivier Méhu
Soutien technique & logistique : Manuel Goepfert

Contact : metmap@orbifly.com




SOURCES & CREDITS :

   NOAA